WMKP/PEN METAR and TAF weather

Enter ICAO airport designator
Station Type Date Time Source
WMKP METAR 2020/08/15 16:30 UTC NOAA

WMKP 151630Z 00000KT 8000 FEW025 28/25 Q1010 NOSIG


Station Type Date Time Source
WMKP Decoded METAR 2020/08/15 16:30 UTC NOAA

Penang / Bayan Lepas, Malaysia (WMKP) 05-18N 100-16E 4M
Aug 15, 2020 - 12:30 PM EDT / 2020.08.15 1630 UTC
Wind: Calm:0
Visibility: 4 mile(s):0
Sky conditions: mostly clear
Temperature: 82 F (28 C)
Dew Point: 77 F (25 C)
Relative Humidity: 83%
Pressure (altimeter): 29.83 in. Hg (1010 hPa)
ob: WMKP 151630Z 00000KT 8000 FEW025 28/25 Q1010 NOSIG
cycle: 16

Station Type Date Time Source
WMKP TAF 2020/08/15 12:09 UTC NOAA

TAF WMKP 151100Z 1512/1612 VRB03KT 8000 FEW025
TEMPO 1522/1602 6000 -TSRA FEW010 FEW017CB
BECMG 1604/1606 22008KT 9999 FEW020

Example: see airport list